| 8/24/2026 | California State Teachers Retirement System | 2,941 | $60K | 0.0% | +412.4% | 0.014% | |
| 8/22/2026 | Compass Financial Management LLC | 1,472 | $30K | 0.0% | N/A | 0.007% | |
| 8/12/2026 | Compass Financial Management LLC | 1,472 | $30K | 0.0% | N/A | 0.007% | |
| 5/19/2026 | Bank of America Corp DE | 26,983 | $392K | 0.0% | +43.7% | 0.130% | |
| 5/18/2026 | Royal Bank of Canada | 53,883 | $783K | 0.0% | +7,046.3% | 0.260% | |
| 5/14/2026 | Walleye Capital LLC | 85,183 | $1.24M | 0.0% | -8.8% | 0.411% | |
| 5/13/2026 | KCM Capital Inc | 35,000 | $509K | 0.1% | N/A | 0.169% | |
| 5/7/2026 | Roubaix Capital LLC | 257,121 | $3.74M | 1.7% | +61.9% | 1.240% | |
| 5/5/2026 | Bank of New York Mellon Corp | 17,366 | $252K | 0.0% | N/A | 0.084% | |
| 4/20/2026 | Blue Trust Inc. | 15,719 | $228K | 0.0% | N/A | 0.076% | |
Get the Latest News and Ratings for SI and Related Stocks Enter your email address below to receive the latest news and analysts' ratings for Shoulder Innovations and its competitors with MarketBeat's FREE daily newsletter.
|
| 2/18/2026 | Readystate Asset Management LP | 39,431 | $564K | 0.0% | -3.2% | 0.191% | |
| 2/18/2026 | Millennium Management LLC | 92,003 | $1.32M | 0.0% | N/A | 0.447% | |
| 2/13/2026 | Walleye Capital LLC | 93,434 | $1.34M | 0.0% | +30.1% | 0.454% | |
| 2/13/2026 | Alyeska Investment Group L.P. | 232,984 | $3.33M | 0.0% | -48.4% | 1.131% | |
| 2/13/2026 | State Street Corp | 58,422 | $835K | 0.0% | +50.6% | 0.284% | |
| 2/13/2026 | Wells Fargo & Company MN | 5,250 | $75K | 0.0% | +66.3% | 0.025% | |
| 2/12/2026 | Jane Street Group LLC | 16,367 | $234K | 0.0% | N/A | 0.079% | |
| 2/12/2026 | Renaissance Technologies LLC | 12,300 | $176K | 0.0% | N/A | 0.060% | |
| 2/12/2026 | Federated Hermes Inc. | 87,726 | $1.25M | 0.0% | -56.1% | 0.426% | |
| 2/11/2026 | Deutsche Bank AG | 4,133 | $59K | 0.0% | -46.6% | 0.020% | |
| 2/9/2026 | Geode Capital Management LLC | 110,303 | $1.58M | 0.0% | +17.3% | 0.535% | |
| 2/9/2026 | Sectoral Asset Management Inc. | 492,435 | $7.04M | 5.6% | +14.4% | 2.390% | |
| 2/6/2026 | TimesSquare Capital Management LLC | 289,850 | $4.15M | 0.1% | -24.2% | 1.407% | |
| 2/2/2026 | CM Management LLC | 25,000 | $358K | 0.3% | N/A | 0.121% | |
| 11/17/2025 | Alyeska Investment Group L.P. | 451,536 | $5.67M | 0.0% | N/A | 2.192% | |
| 11/17/2025 | MIRAE ASSET GLOBAL ETFS HOLDINGS Ltd. | 2,213 | $28K | 0.0% | N/A | 0.011% | |
| 11/17/2025 | Citadel Advisors LLC | 50,000 | $628K | 0.0% | N/A | 0.243% | |
| 11/17/2025 | Bank of America Corp DE | 25,670 | $322K | 0.0% | N/A | 0.125% | |
| 11/14/2025 | Deerfield Management Company L.P. | 482,572 | $6.06M | 0.1% | N/A | 2.370% | |
| 11/12/2025 | Monashee Investment Management LLC | 40,000 | $502K | 0.3% | N/A | 0.196% | |
| 11/7/2025 | Readystate Asset Management LP | 40,745 | $511K | 0.0% | N/A | 0.200% | |
| 11/7/2025 | Vanguard Group Inc. | 146,268 | $1.84M | 0.0% | N/A | 0.718% | |
| 11/7/2025 | TimesSquare Capital Management LLC | 382,367 | $4.80M | 0.1% | N/A | 1.878% | |
| 11/6/2025 | Rhumbline Advisers | 4,286 | $54K | 0.0% | N/A | 0.021% | |
| 11/5/2025 | Board of Trustees of The Leland Stanford Junior University | 13,521 | $170K | 0.0% | N/A | 0.066% | |
| 11/3/2025 | Federated Hermes Inc. | 200,000 | $2.51M | 0.0% | N/A | 0.982% | |
| 9/21/2023 | Barclays PLC | 66,102 | $83K | 0.0% | -89.4% | 0.209% | |
| 5/15/2023 | Quinn Opportunity Partners LLC | 561,755 | $910K | 0.1% | N/A | 1.774% | |
| 5/4/2023 | Barclays PLC | 624,889 | $1.01M | 0.0% | -496.8% | 1.974% | |
| 5/1/2023 | Virtu Financial LLC | 97,594 | $158K | 0.0% | N/A | 0.308% | |
Major Buy Alert Issued for August 31st (Ad) Keith Kaplan has invested $17 million into his own AI research tools, building a platform now used by 180,000 people worldwide.
His system has flagged a handful of stocks worth watching ahead of August 31st.
See which stocks his AI research platform is flagging right now. See which stocks his AI research platform is flagging now |
| 4/28/2023 | Janney Montgomery Scott LLC | 25,233 | $41K | 0.0% | +121.6% | 0.080% | |
| 3/6/2023 | Rockefeller Capital Management L.P. | 19,117 | $332K | 0.0% | +100.7% | 0.060% | |
| 2/14/2023 | Patient Capital Management LLC | 135,600 | $2.36M | 1.1% | N/A | 0.428% | |
| 2/14/2023 | Ribbit Capital GP V Ltd. | 32,641 | $568K | 2.9% | N/A | 0.103% | |
| 2/14/2023 | Miller Value Partners LLC | 1,423,984 | $24.78M | 1.6% | +448.2% | 4.498% | |
| 2/14/2023 | Granahan Investment Management LLC | 492,163 | $8.56M | 0.3% | +79.9% | 1.555% | |
| 2/13/2023 | Renaissance Technologies LLC | 1,054,300 | $18.35M | 0.0% | N/A | 3.330% | |
| 2/10/2023 | block.one | 2,562,186 | $44.58M | 49.1% | N/A | 8.093% | |
| 2/10/2023 | Connor Clark & Lunn Investment Management Ltd. | 126,843 | $2.21M | 0.0% | N/A | 0.401% | |
| 2/10/2023 | CI Investments Inc. | 1,504 | $26K | 0.0% | +238.0% | 0.005% | |
| 2/10/2023 | Stilwell Value LLC | 71,000 | $1.24M | 0.9% | N/A | 0.224% | |
| 2/9/2023 | Pinebridge Investments L.P. | 2,092 | $36K | 0.0% | N/A | 0.007% | |
| 2/9/2023 | First Trust Advisors LP | 125,474 | $2.18M | 0.0% | +189.0% | 0.396% | |
| 2/8/2023 | Thrivent Financial for Lutherans | 120,923 | $2.10M | 0.0% | N/A | 0.382% | |
| 2/8/2023 | Van ECK Associates Corp | 93,660 | $1.63M | 0.0% | +115.5% | 0.296% | |
| 2/8/2023 | Swiss National Bank | 76,400 | $1.33M | 0.0% | +1.9% | 0.241% | |
| 2/8/2023 | Russell Investments Group Ltd. | 12,771 | $222K | 0.0% | -24.1% | 0.040% | |
| 2/7/2023 | Commonwealth Equity Services LLC | 17,182 | $298K | 0.0% | -11.9% | 0.054% | |
| 2/7/2023 | LPL Financial LLC | 40,407 | $703K | 0.0% | +194.7% | 0.128% | |
| 2/7/2023 | Mitsubishi UFJ Kokusai Asset Management Co. Ltd. | 7,432 | $128K | 0.0% | +220.5% | 0.023% | |
| 2/6/2023 | Los Angeles Capital Management LLC | 20,410 | $355K | 0.0% | +109.8% | 0.064% | |
| 2/6/2023 | Taylor Frigon Capital Management LLC | 50,875 | $885K | 0.5% | +39.1% | 0.161% | |
| 2/3/2023 | Archer Investment Corp | 6,000 | $104K | 0.0% | +344.4% | 0.019% | |
| 2/3/2023 | Emerald Advisers LLC | 4,394 | $76K | 0.0% | -96.9% | 0.014% | |
| 2/2/2023 | Nisa Investment Advisors LLC | 46,246 | $805K | 0.0% | +4,425.0% | 0.146% | |
| 2/2/2023 | AtonRa Partners | 19,457 | $339K | 0.4% | -4.9% | 0.061% | |
| 2/1/2023 | Antonetti Capital Management LLC | 2,435 | $42K | 0.1% | N/A | 0.008% | |
| 2/1/2023 | Janney Montgomery Scott LLC | 11,388 | $198K | 0.0% | -81.7% | 0.036% | |
| 1/31/2023 | Woodmont Investment Counsel LLC | 30,839 | $537K | 0.1% | -9.4% | 0.097% | |
| 1/30/2023 | New York State Common Retirement Fund | 46,490 | $809K | 0.0% | -53.4% | 0.147% | |
| 1/24/2023 | ARK Investment Management LLC | 413,798 | $7.20M | 0.1% | -1.6% | 1.307% | |
| 1/24/2023 | Eudaimonia Partners LLC | 16,135 | $281K | 0.1% | +72.3% | 0.051% | |
| 1/23/2023 | Allspring Global Investments Holdings LLC | 8,354 | $145K | 0.0% | -97.6% | 0.026% | |
| 1/20/2023 | Hennessy Advisors Inc. | 35,000 | $609K | 0.0% | N/A | 0.111% | |
| 1/20/2023 | Values First Advisors Inc. | 16,206 | $282K | 0.2% | N/A | 0.051% | |
| 1/19/2023 | Quent Capital LLC | 2,856 | $50K | 0.0% | -68.3% | 0.009% | |
| 1/18/2023 | Exchange Traded Concepts LLC | 74,438 | $1.30M | 0.0% | -9.6% | 0.235% | |
| 1/11/2023 | Sara Bay Financial | 56,782 | $988K | 0.6% | +7.2% | 0.179% | |
| 1/5/2023 | Spence Asset Management | 1,454 | $25K | 0.0% | -97.5% | 0.005% | |
| 12/8/2022 | Bank of New York Mellon Corp | 277,549 | $20.91M | 0.0% | +34.4% | 0.877% | |
| 12/2/2022 | American Trust | 7,350 | $554K | 0.0% | +5.8% | 0.023% | |
| 12/1/2022 | Robeco Institutional Asset Management B.V. | 90,000 | $6.78M | 0.0% | -10.0% | 0.284% | |
| 11/23/2022 | Toroso Investments LLC | 301,190 | $22.70M | 0.9% | -23.4% | 0.951% | |
| 11/16/2022 | Horizon Kinetics Asset Management LLC | 5,679 | $428K | 0.0% | N/A | 0.018% | |
| 11/15/2022 | Jacobs Levy Equity Management Inc. | 51,401 | $3.87M | 0.0% | N/A | 0.162% | |
| 11/15/2022 | Twinbeech Capital LP | 15,405 | $1.16M | 0.0% | N/A | 0.049% | |
| 11/15/2022 | Putnam Investments LLC | 135,204 | $10.19M | 0.0% | +2.6% | 0.427% | |
| 11/15/2022 | Quantamental Technologies LLC | 6,316 | $476K | 0.2% | N/A | 0.020% | |
| 11/15/2022 | Lord Abbett & CO. LLC | 312,724 | $23.56M | 0.1% | N/A | 0.988% | |
| 11/15/2022 | Marshall Wace LLP | 1,349,311 | $101.67M | 0.2% | +4.5% | 4.262% | |
The cat is out the bag (Ad) Almost 80,000 tech jobs vanished in the first three months of 2026. Meta cut 14,000 roles, Microsoft offered separation packages to 8,500 workers, and Oracle is reportedly eliminating up to 30,000 positions. Goldman Sachs estimates 12,400 Americans are being financially displaced every single day.
Analyst Porter Stansberry says the real driver runs deeper than AI - and two Nobel Prize winners have issued the same warning. He calls it the Final Displacement, and he's releasing a full investigation with specific companies to buy and sell before the next wave hits. Watch Porter Stansberry's full investigation into the Final Displacement now |
| 11/15/2022 | EJF Capital LLC | 635,737 | $47.90M | 7.4% | -19.9% | 2.008% | |
| 11/14/2022 | Zacks Investment Management | 9,344 | $704K | 0.0% | -7.7% | 0.030% | |
| 11/14/2022 | Point72 Asset Management L.P. | 207,292 | $15.62M | 0.1% | -5.8% | 0.655% | |
| 11/14/2022 | Cubist Systematic Strategies LLC | 7,667 | $578K | 0.0% | -22.1% | 0.024% | |
| 11/14/2022 | Guggenheim Capital LLC | 60,485 | $4.56M | 0.0% | -3.3% | 0.191% | |
| 11/14/2022 | Boothbay Fund Management LLC | 38,974 | $2.94M | 0.1% | N/A | 0.123% | |
| 11/14/2022 | Penserra Capital Management LLC | 3,157 | $237K | 0.0% | -27.8% | 0.010% | |
| 11/14/2022 | MML Investors Services LLC | 4,823 | $363K | 0.0% | +15.2% | 0.015% | |
| 11/14/2022 | Nuveen Asset Management LLC | 144,984 | $10.93M | 0.0% | -2.1% | 0.458% | |
| 11/14/2022 | Canada Pension Plan Investment Board | 2,600 | $196K | 0.0% | +52.9% | 0.008% | |